Time;durP1;ratioP1;P1;durP2;ratioP2;P2;SDS_P1;SDS_P2;PMS_P1;PMS_P2;Temp;Humidity;BMP_temperature;BMP_pressure;BME280_temperature;BME280_humidity;BME280_pressure;Samples;Min_cycle;Max_cycle;Signal;HPM_P1;HPM_P2
2021/12/10 00:01:21;;;;;;;39.58;23.98;;;;;;;;;;5017783;28;20033;-85
2021/12/10 00:03:50;;;;;;;41.00;24.45;;;;;;;;;;5020613;28;20046;-84
2021/12/10 00:06:21;;;;;;;46.90;24.15;;;;;;;;;;5000516;28;20078;-87
2021/12/10 00:08:49;;;;;;;44.08;24.17;;;;;;;;;;4995917;28;20042;-86
2021/12/10 00:11:21;;;;;;;42.25;24.45;;;;;;;;;;4999189;28;20033;-88
2021/12/10 00:13:47;;;;;;;45.17;24.92;;;;;;;;;;5006723;28;20041;-88
2021/12/10 00:16:15;;;;;;;39.92;23.17;;;;;;;;;;5011505;28;20095;-89
2021/12/10 00:18:49;;;;;;;41.88;22.98;;;;;;;;;;5014863;28;20049;-88
2021/12/10 00:21:15;;;;;;;34.05;21.67;;;;;;;;;;4998882;28;20060;-88
2021/12/10 00:23:45;;;;;;;36.50;21.15;;;;;;;;;;5014116;28;20496;-87
2021/12/10 00:26:11;;;;;;;43.75;22.52;;;;;;;;;;5014743;28;20037;-88
2021/12/10 00:28:40;;;;;;;33.42;19.40;;;;;;;;;;4994149;28;20038;-85
2021/12/10 00:31:19;;;;;;;36.40;21.60;;;;;;;;;;5028172;28;20050;-86
2021/12/10 00:33:54;;;;;;;37.78;21.35;;;;;;;;;;4978746;28;20042;-87
2021/12/10 00:36:20;;;;;;;36.47;21.73;;;;;;;;;;4981517;28;20169;-87
2021/12/10 00:38:47;;;;;;;33.83;21.70;;;;;;;;;;5019885;28;20033;-86
2021/12/10 00:41:13;;;;;;;32.40;20.75;;;;;;;;;;5010613;28;20515;-89
2021/12/10 00:43:40;;;;;;;36.60;21.45;;;;;;;;;;5009620;28;20038;-87
2021/12/10 00:46:07;;;;;;;33.58;21.45;;;;;;;;;;5015745;28;20071;-87
2021/12/10 00:48:33;;;;;;;33.72;20.95;;;;;;;;;;5004915;28;20099;-86
2021/12/10 00:51:00;;;;;;;33.97;20.40;;;;;;;;;;5007195;28;20052;-85
2021/12/10 00:53:26;;;;;;;36.35;21.83;;;;;;;;;;5013824;28;20060;-88
2021/12/10 00:55:53;;;;;;;34.67;19.42;;;;;;;;;;5009920;28;20444;-87
2021/12/10 00:58:19;;;;;;;38.25;21.45;;;;;;;;;;5001800;28;20052;-88
2021/12/10 01:00:47;;;;;;;32.97;19.73;;;;;;;;;;5014283;28;20049;-88
2021/12/10 01:03:16;;;;;;;36.13;21.42;;;;;;;;;;5031335;28;20125;-87
2021/12/10 01:05:43;;;;;;;33.67;19.75;;;;;;;;;;5030700;28;20112;-83
2021/12/10 01:08:09;;;;;;;30.17;20.48;;;;;;;;;;5032916;28;20052;-83
2021/12/10 01:10:44;;;;;;;36.28;20.27;;;;;;;;;;5042617;28;20037;-83
2021/12/10 01:13:14;;;;;;;29.73;19.60;;;;;;;;;;5007878;28;20097;-86
2021/12/10 01:15:55;;;;;;;30.92;19.55;;;;;;;;;;4990997;28;20120;-88
2021/12/10 01:24:07;;;;;;;31.25;17.52;;;;;;;;;;4991476;28;20046;-87
2021/12/10 01:29:14;;;;;;;29.52;18.27;;;;;;;;;;5008546;28;20042;-88
2021/12/10 01:31:40;;;;;;;25.65;17.23;;;;;;;;;;5004285;28;20037;-88
2021/12/10 01:34:09;;;;;;;31.45;17.98;;;;;;;;;;4993791;28;20061;-88
2021/12/10 01:36:35;;;;;;;28.73;17.17;;;;;;;;;;5017678;28;20046;-88
2021/12/10 01:39:01;;;;;;;26.42;18.40;;;;;;;;;;5017664;28;20068;-88
2021/12/10 01:41:33;;;;;;;30.35;17.23;;;;;;;;;;5011378;28;20672;-89
2021/12/10 01:44:03;;;;;;;31.48;17.17;;;;;;;;;;5033443;28;20103;-88
2021/12/10 01:46:31;;;;;;;27.08;16.58;;;;;;;;;;5017081;28;20085;-86
2021/12/10 01:49:04;;;;;;;26.02;17.13;;;;;;;;;;5006340;28;20468;-87
2021/12/10 01:51:35;;;;;;;25.30;16.23;;;;;;;;;;4997642;28;20041;-88
2021/12/10 01:54:05;;;;;;;28.27;16.23;;;;;;;;;;4981438;28;20495;-89
2021/12/10 01:56:32;;;;;;;25.02;15.50;;;;;;;;;;4989467;28;20045;-88
2021/12/10 01:58:59;;;;;;;28.52;16.15;;;;;;;;;;4997842;28;20077;-85
2021/12/10 02:01:29;;;;;;;28.80;16.33;;;;;;;;;;5020437;28;20046;-86
2021/12/10 02:03:56;;;;;;;28.58;16.60;;;;;;;;;;5029553;28;20052;-88
2021/12/10 02:06:22;;;;;;;26.05;14.57;;;;;;;;;;5004068;28;20034;-88
2021/12/10 02:08:49;;;;;;;27.92;15.98;;;;;;;;;;5005616;28;20460;-87
2021/12/10 02:11:16;;;;;;;26.70;15.95;;;;;;;;;;5016081;28;20037;-89
2021/12/10 02:13:42;;;;;;;27.08;15.38;;;;;;;;;;4993401;28;20053;-87
2021/12/10 02:16:08;;;;;;;21.48;15.07;;;;;;;;;;4987044;28;20064;-88
2021/12/10 02:18:34;;;;;;;25.15;15.60;;;;;;;;;;4980834;28;20042;-88
2021/12/10 02:21:03;;;;;;;27.88;14.70;;;;;;;;;;4988956;28;20048;-89
2021/12/10 02:23:32;;;;;;;23.38;14.23;;;;;;;;;;4980481;28;20057;-87
2021/12/10 02:26:01;;;;;;;31.30;16.65;;;;;;;;;;4996920;28;20492;-88
2021/12/10 02:28:27;;;;;;;25.90;15.35;;;;;;;;;;4997335;28;20046;-88
2021/12/10 02:30:54;;;;;;;26.27;15.02;;;;;;;;;;4988813;28;20041;-88
2021/12/10 02:33:20;;;;;;;24.15;15.13;;;;;;;;;;5000137;28;20049;-88
2021/12/10 02:35:46;;;;;;;26.38;14.10;;;;;;;;;;5016760;28;20073;-88
2021/12/10 02:38:15;;;;;;;22.90;14.35;;;;;;;;;;5003394;28;20046;-89
2021/12/10 02:40:41;;;;;;;28.02;15.55;;;;;;;;;;4983238;28;20059;-88
2021/12/10 02:43:08;;;;;;;29.05;15.50;;;;;;;;;;5030380;28;20523;-89
2021/12/10 02:45:35;;;;;;;26.25;16.48;;;;;;;;;;5012040;28;20041;-88
2021/12/10 02:48:01;;;;;;;26.77;15.93;;;;;;;;;;5032712;28;20116;-88
2021/12/10 02:50:29;;;;;;;27.17;16.23;;;;;;;;;;5009098;28;20045;-87
2021/12/10 02:52:55;;;;;;;26.15;16.42;;;;;;;;;;5004627;28;20048;-88
2021/12/10 02:55:22;;;;;;;24.23;15.85;;;;;;;;;;4995707;28;20044;-88
2021/12/10 02:57:51;;;;;;;28.33;16.00;;;;;;;;;;4980368;28;20156;-88
2021/12/10 03:00:18;;;;;;;25.98;15.88;;;;;;;;;;4981641;28;20034;-88
2021/12/10 03:02:45;;;;;;;25.67;16.02;;;;;;;;;;5016495;28;20037;-88
2021/12/10 03:05:11;;;;;;;31.00;16.23;;;;;;;;;;5008227;28;20046;-87
2021/12/10 03:07:39;;;;;;;32.05;17.77;;;;;;;;;;5029221;28;20038;-88
2021/12/10 03:10:06;;;;;;;26.92;17.77;;;;;;;;;;5027996;28;20423;-87
2021/12/10 03:12:33;;;;;;;29.60;16.02;;;;;;;;;;5008198;28;20045;-84
2021/12/10 03:14:59;;;;;;;28.52;18.23;;;;;;;;;;5034073;28;20045;-85
2021/12/10 03:17:26;;;;;;;29.33;18.80;;;;;;;;;;5054967;28;20048;-87
2021/12/10 03:19:53;;;;;;;32.45;19.85;;;;;;;;;;4996654;28;20627;-87
2021/12/10 03:22:20;;;;;;;29.50;18.75;;;;;;;;;;5032194;28;20234;-87
2021/12/10 03:24:46;;;;;;;28.05;17.55;;;;;;;;;;5015521;28;20131;-87
2021/12/10 03:27:15;;;;;;;31.83;18.90;;;;;;;;;;4999607;28;20049;-87
2021/12/10 03:29:42;;;;;;;27.33;18.20;;;;;;;;;;4998912;28;20048;-88
2021/12/10 03:32:10;;;;;;;29.13;18.90;;;;;;;;;;5015409;28;20092;-88
2021/12/10 03:34:36;;;;;;;25.17;18.40;;;;;;;;;;4998805;28;20053;-88
2021/12/10 03:37:05;;;;;;;27.90;18.00;;;;;;;;;;5007546;28;20046;-88
2021/12/10 03:39:31;;;;;;;25.60;18.45;;;;;;;;;;5001299;28;20507;-88
2021/12/10 03:41:58;;;;;;;33.70;19.58;;;;;;;;;;5045627;28;20046;-87
2021/12/10 03:44:24;;;;;;;27.45;19.15;;;;;;;;;;5053438;28;20033;-86
2021/12/10 03:46:51;;;;;;;27.67;18.33;;;;;;;;;;4982159;28;20136;-89
2021/12/10 03:49:17;;;;;;;29.95;19.40;;;;;;;;;;4974787;28;20042;-89
2021/12/10 03:51:44;;;;;;;28.75;17.70;;;;;;;;;;4980157;28;20044;-88
2021/12/10 03:54:11;;;;;;;30.67;17.95;;;;;;;;;;4989442;28;20077;-87
2021/12/10 03:56:38;;;;;;;27.77;18.00;;;;;;;;;;5031535;28;20041;-88
2021/12/10 03:59:07;;;;;;;25.00;18.17;;;;;;;;;;5007133;28;20089;-86
2021/12/10 04:01:34;;;;;;;27.30;16.63;;;;;;;;;;4979659;28;20080;-88
2021/12/10 04:04:02;;;;;;;25.08;16.35;;;;;;;;;;4998146;28;20073;-87
2021/12/10 04:06:28;;;;;;;30.20;17.95;;;;;;;;;;5008680;28;20552;-87
2021/12/10 04:08:54;;;;;;;25.77;17.55;;;;;;;;;;5031469;28;20124;-87
2021/12/10 04:11:20;;;;;;;24.73;16.98;;;;;;;;;;5015235;28;20424;-87
2021/12/10 04:13:48;;;;;;;22.88;16.00;;;;;;;;;;4998215;28;20053;-87
2021/12/10 04:16:16;;;;;;;24.90;16.55;;;;;;;;;;4991144;28;20045;-86
2021/12/10 04:18:42;;;;;;;26.15;17.48;;;;;;;;;;5009690;28;20052;-87
2021/12/10 04:21:09;;;;;;;28.67;17.33;;;;;;;;;;5015050;28;20037;-86
2021/12/10 04:23:37;;;;;;;25.38;17.10;;;;;;;;;;5000874;28;20042;-87
2021/12/10 04:26:03;;;;;;;27.10;17.88;;;;;;;;;;5006104;28;20487;-87
2021/12/10 04:28:30;;;;;;;28.17;17.80;;;;;;;;;;5015075;28;20500;-85
2021/12/10 04:30:56;;;;;;;29.70;19.02;;;;;;;;;;5006044;28;20489;-87
2021/12/10 04:33:23;;;;;;;30.50;19.52;;;;;;;;;;4994236;28;20508;-87
2021/12/10 04:35:51;;;;;;;28.60;18.77;;;;;;;;;;4996693;28;20128;-87
2021/12/10 04:38:17;;;;;;;30.42;20.40;;;;;;;;;;5012014;28;20037;-86
2021/12/10 04:40:47;;;;;;;28.50;19.30;;;;;;;;;;4978937;28;20397;-87
2021/12/10 04:43:13;;;;;;;30.33;20.75;;;;;;;;;;5009117;28;20077;-87
2021/12/10 04:45:39;;;;;;;31.30;19.27;;;;;;;;;;4999862;28;20037;-87
2021/12/10 04:48:05;;;;;;;30.65;21.48;;;;;;;;;;5012650;28;20044;-87
2021/12/10 04:50:31;;;;;;;31.55;19.33;;;;;;;;;;5014287;28;20084;-87
2021/12/10 04:52:57;;;;;;;36.40;20.33;;;;;;;;;;5009417;28;20045;-87
2021/12/10 04:55:24;;;;;;;28.45;19.63;;;;;;;;;;4994966;28;20420;-85
2021/12/10 04:57:50;;;;;;;30.00;20.00;;;;;;;;;;4998647;28;20048;-87
2021/12/10 05:00:18;;;;;;;29.58;19.90;;;;;;;;;;5014677;28;20033;-87
2021/12/10 05:02:44;;;;;;;29.20;18.92;;;;;;;;;;5014459;28;20494;-87
2021/12/10 05:05:11;;;;;;;31.35;20.20;;;;;;;;;;4997580;28;20495;-87
2021/12/10 05:07:37;;;;;;;30.63;19.90;;;;;;;;;;5014394;28;20157;-87
2021/12/10 05:10:08;;;;;;;27.45;19.05;;;;;;;;;;5014181;28;20041;-87
2021/12/10 05:12:34;;;;;;;26.65;18.48;;;;;;;;;;4998173;28;20046;-86
2021/12/10 05:15:01;;;;;;;28.95;19.42;;;;;;;;;;4994355;28;20394;-85
2021/12/10 05:17:30;;;;;;;25.70;17.73;;;;;;;;;;5027684;28;20456;-87
2021/12/10 05:19:59;;;;;;;26.33;17.13;;;;;;;;;;5027099;28;20078;-87
2021/12/10 05:22:25;;;;;;;29.38;17.83;;;;;;;;;;4984494;28;20059;-87
2021/12/10 05:24:51;;;;;;;26.60;17.02;;;;;;;;;;5010386;28;20039;-87
2021/12/10 05:27:17;;;;;;;26.92;17.83;;;;;;;;;;5024216;28;20026;-84
2021/12/10 05:29:43;;;;;;;27.95;18.02;;;;;;;;;;5053750;28;20028;-84
2021/12/10 05:32:11;;;;;;;25.27;16.17;;;;;;;;;;5022873;28;20070;-84
2021/12/10 05:34:40;;;;;;;27.58;17.67;;;;;;;;;;5030956;28;20049;-87
2021/12/10 05:37:07;;;;;;;24.60;15.32;;;;;;;;;;5001078;28;20038;-87
2021/12/10 05:39:33;;;;;;;25.77;16.73;;;;;;;;;;5008705;28;20124;-87
2021/12/10 05:42:01;;;;;;;26.15;17.65;;;;;;;;;;4997592;28;20132;-86
2021/12/10 05:44:27;;;;;;;25.42;16.45;;;;;;;;;;5006790;28;20128;-86
2021/12/10 05:46:53;;;;;;;25.33;16.75;;;;;;;;;;4999254;28;20045;-88
2021/12/10 05:49:19;;;;;;;24.00;16.38;;;;;;;;;;4997968;28;20037;-87
2021/12/10 05:51:45;;;;;;;24.27;17.95;;;;;;;;;;5033480;28;20120;-88
2021/12/10 05:54:11;;;;;;;23.83;16.92;;;;;;;;;;5017027;28;20080;-88
2021/12/10 05:56:38;;;;;;;22.05;15.65;;;;;;;;;;5010276;28;20044;-87
2021/12/10 05:59:05;;;;;;;22.63;14.98;;;;;;;;;;5009865;28;20424;-87
2021/12/10 06:01:31;;;;;;;26.92;17.45;;;;;;;;;;5024395;28;20042;-88
2021/12/10 06:03:57;;;;;;;24.83;16.45;;;;;;;;;;5004533;28;20108;-87
2021/12/10 06:06:25;;;;;;;24.20;16.98;;;;;;;;;;5000607;28;20492;-86
2021/12/10 06:08:52;;;;;;;21.00;15.20;;;;;;;;;;5017998;28;20381;-87
2021/12/10 06:11:19;;;;;;;23.58;15.48;;;;;;;;;;5002753;28;20485;-87
2021/12/10 06:13:45;;;;;;;23.70;14.98;;;;;;;;;;4992655;28;20536;-88
2021/12/10 06:16:12;;;;;;;24.02;15.43;;;;;;;;;;4974426;28;20085;-86
2021/12/10 06:18:38;;;;;;;21.95;15.00;;;;;;;;;;4994869;28;20038;-85
2021/12/10 06:21:04;;;;;;;22.95;15.38;;;;;;;;;;4993058;28;20037;-89
2021/12/10 06:23:30;;;;;;;24.80;16.48;;;;;;;;;;4979388;28;20074;-87
2021/12/10 06:25:56;;;;;;;20.40;14.88;;;;;;;;;;4998890;28;20113;-85
2021/12/10 06:28:22;;;;;;;22.13;14.90;;;;;;;;;;4975028;28;20397;-87
2021/12/10 06:30:50;;;;;;;22.38;14.95;;;;;;;;;;5008271;28;20040;-85
2021/12/10 06:33:17;;;;;;;19.52;14.13;;;;;;;;;;5014093;28;20125;-87
2021/12/10 06:35:45;;;;;;;20.85;14.80;;;;;;;;;;5004813;28;20444;-87
2021/12/10 06:38:11;;;;;;;21.08;14.68;;;;;;;;;;5033169;28;20044;-87
2021/12/10 06:40:38;;;;;;;23.95;14.07;;;;;;;;;;4991021;28;20045;-87
2021/12/10 06:43:05;;;;;;;24.50;14.75;;;;;;;;;;5000130;28;20389;-88
2021/12/10 06:45:33;;;;;;;21.00;14.20;;;;;;;;;;4994700;28;20042;-87
2021/12/10 06:48:01;;;;;;;21.25;14.07;;;;;;;;;;5028006;28;20077;-86
2021/12/10 06:50:30;;;;;;;20.23;13.63;;;;;;;;;;5027625;28;20034;-87
2021/12/10 06:52:57;;;;;;;23.67;14.57;;;;;;;;;;5010245;28;20045;-87
2021/12/10 06:55:24;;;;;;;23.80;15.32;;;;;;;;;;5015993;28;20037;-84
2021/12/10 06:57:50;;;;;;;25.05;14.20;;;;;;;;;;5054962;28;20037;-85
2021/12/10 07:00:21;;;;;;;23.38;13.52;;;;;;;;;;4995587;28;20046;-87
2021/12/10 07:02:47;;;;;;;22.48;13.27;;;;;;;;;;4998785;28;20085;-86
2021/12/10 07:05:14;;;;;;;21.88;13.70;;;;;;;;;;4992560;28;20038;-88
2021/12/10 07:07:41;;;;;;;22.60;14.63;;;;;;;;;;5001387;28;20096;-84
2021/12/10 07:10:08;;;;;;;21.48;13.70;;;;;;;;;;4991859;28;20034;-88
2021/12/10 07:12:35;;;;;;;21.90;13.05;;;;;;;;;;4999694;28;20042;-88
2021/12/10 07:15:02;;;;;;;24.08;14.82;;;;;;;;;;5016126;28;20046;-87
2021/12/10 07:17:28;;;;;;;22.75;13.45;;;;;;;;;;5010164;28;20550;-87
2021/12/10 07:19:54;;;;;;;21.10;13.25;;;;;;;;;;5007177;28;20049;-87
2021/12/10 07:22:20;;;;;;;19.42;12.73;;;;;;;;;;5003532;28;20500;-87
2021/12/10 07:24:46;;;;;;;18.58;12.40;;;;;;;;;;5007884;28;20064;-84
2021/12/10 07:27:12;;;;;;;19.85;13.00;;;;;;;;;;5026155;28;20021;-81
2021/12/10 07:29:39;;;;;;;22.20;13.13;;;;;;;;;;5018291;28;20045;-88
2021/12/10 07:32:06;;;;;;;20.05;12.05;;;;;;;;;;4998460;28;20518;-88
2021/12/10 07:34:32;;;;;;;18.92;12.32;;;;;;;;;;5032588;28;20045;-87
2021/12/10 07:36:58;;;;;;;19.63;11.65;;;;;;;;;;5000306;28;20084;-85
2021/12/10 07:39:27;;;;;;;18.08;11.82;;;;;;;;;;5005888;28;20041;-86
2021/12/10 07:41:53;;;;;;;19.38;11.80;;;;;;;;;;5006850;28;20064;-88
2021/12/10 07:44:19;;;;;;;22.65;12.82;;;;;;;;;;5004408;28;20044;-86
2021/12/10 07:46:48;;;;;;;20.90;12.27;;;;;;;;;;4999854;28;20042;-86
2021/12/10 07:49:16;;;;;;;18.75;11.35;;;;;;;;;;5031537;28;20034;-87
2021/12/10 07:51:49;;;;;;;19.52;11.73;;;;;;;;;;5032359;28;20049;-87
2021/12/10 07:54:16;;;;;;;17.83;12.02;;;;;;;;;;5015220;28;20389;-85
2021/12/10 07:56:42;;;;;;;19.92;11.25;;;;;;;;;;5013176;28;20046;-86
2021/12/10 07:59:08;;;;;;;19.85;11.00;;;;;;;;;;4999350;28;20066;-86
2021/12/10 08:01:34;;;;;;;18.30;11.43;;;;;;;;;;4998581;28;20519;-86
2021/12/10 08:04:01;;;;;;;21.13;11.75;;;;;;;;;;5028770;28;20034;-86
2021/12/10 08:06:28;;;;;;;17.77;10.73;;;;;;;;;;5028913;28;20038;-86
2021/12/10 08:08:54;;;;;;;18.88;11.40;;;;;;;;;;5031383;28;20104;-86
2021/12/10 08:11:21;;;;;;;16.20;11.05;;;;;;;;;;5005409;28;20077;-86
2021/12/10 08:13:47;;;;;;;17.13;11.32;;;;;;;;;;5002204;28;20501;-84
2021/12/10 08:16:13;;;;;;;21.77;11.00;;;;;;;;;;4998560;28;20535;-86
2021/12/10 08:18:40;;;;;;;18.70;11.32;;;;;;;;;;5032120;28;20044;-86
2021/12/10 08:21:06;;;;;;;22.25;11.38;;;;;;;;;;4996343;28;20501;-87
2021/12/10 08:23:32;;;;;;;15.70;10.95;;;;;;;;;;5027989;28;20048;-86
2021/12/10 08:25:59;;;;;;;19.30;11.32;;;;;;;;;;5029537;28;20455;-86
2021/12/10 08:28:26;;;;;;;19.42;11.70;;;;;;;;;;5012077;28;20034;-87
2021/12/10 08:30:55;;;;;;;16.83;11.25;;;;;;;;;;4985559;28;20034;-86
2021/12/10 08:33:22;;;;;;;16.85;10.65;;;;;;;;;;4978717;28;20400;-86
2021/12/10 08:35:51;;;;;;;16.58;10.15;;;;;;;;;;5028400;28;20042;-86
2021/12/10 08:38:17;;;;;;;18.33;11.63;;;;;;;;;;5028687;28;20038;-87
2021/12/10 08:40:46;;;;;;;19.35;11.43;;;;;;;;;;5015431;28;20080;-85
2021/12/10 08:43:12;;;;;;;17.02;10.80;;;;;;;;;;5007792;28;20451;-86
2021/12/10 08:45:38;;;;;;;17.08;11.40;;;;;;;;;;5008417;28;20038;-86
2021/12/10 08:48:05;;;;;;;20.08;11.25;;;;;;;;;;5003256;28;20039;-86
2021/12/10 08:50:32;;;;;;;17.80;11.23;;;;;;;;;;5004484;28;20073;-87
2021/12/10 08:52:59;;;;;;;17.90;11.77;;;;;;;;;;5004449;28;20041;-87
2021/12/10 08:55:27;;;;;;;15.05;10.68;;;;;;;;;;5035725;28;20042;-86
2021/12/10 08:57:53;;;;;;;20.10;11.07;;;;;;;;;;5023785;28;20042;-87
2021/12/10 09:00:20;;;;;;;17.10;10.90;;;;;;;;;;5027707;28;20044;-87
2021/12/10 09:02:47;;;;;;;17.77;10.38;;;;;;;;;;5027943;28;20173;-87
2021/12/10 09:05:13;;;;;;;16.63;10.95;;;;;;;;;;5027359;28;20076;-87
2021/12/10 09:07:42;;;;;;;16.20;10.18;;;;;;;;;;5003860;28;20038;-87
2021/12/10 09:10:09;;;;;;;13.77;10.40;;;;;;;;;;5028214;28;20346;-87
2021/12/10 09:12:36;;;;;;;16.60;11.30;;;;;;;;;;4998598;28;20116;-85
2021/12/10 09:15:04;;;;;;;11.40;9.27;;;;;;;;;;5002637;28;20117;-86
2021/12/10 09:17:32;;;;;;;16.10;9.35;;;;;;;;;;4987959;28;20480;-85
2021/12/10 09:19:59;;;;;;;16.80;9.40;;;;;;;;;;5032591;28;20041;-87
2021/12/10 09:22:27;;;;;;;14.90;9.80;;;;;;;;;;5015767;28;20069;-87
2021/12/10 09:24:54;;;;;;;14.60;7.90;;;;;;;;;;5030512;28;20038;-86
2021/12/10 09:27:21;;;;;;;11.82;8.98;;;;;;;;;;5012865;28;20456;-87
2021/12/10 09:29:48;;;;;;;15.50;10.68;;;;;;;;;;4998651;28;20515;-87
2021/12/10 09:32:15;;;;;;;13.43;9.68;;;;;;;;;;5013113;28;20049;-87
2021/12/10 09:34:42;;;;;;;13.55;8.63;;;;;;;;;;5012668;28;20041;-87
2021/12/10 09:37:08;;;;;;;14.23;8.45;;;;;;;;;;5008740;28;20034;-87
2021/12/10 09:39:34;;;;;;;17.20;8.80;;;;;;;;;;5034406;28;20037;-84
2021/12/10 09:42:01;;;;;;;10.65;7.60;;;;;;;;;;4991521;28;20362;-86
2021/12/10 09:44:27;;;;;;;8.52;6.38;;;;;;;;;;5016868;28;20115;-87
2021/12/10 09:46:54;;;;;;;9.45;6.93;;;;;;;;;;5000879;28;20042;-87
2021/12/10 09:49:24;;;;;;;9.45;6.68;;;;;;;;;;4975383;28;20038;-86
2021/12/10 09:52:01;;;;;;;9.70;7.47;;;;;;;;;;5005876;28;20042;-87
2021/12/10 09:54:28;;;;;;;6.60;5.93;;;;;;;;;;4995684;28;20046;-87
2021/12/10 09:56:57;;;;;;;9.57;6.43;;;;;;;;;;4975519;28;20044;-86
2021/12/10 09:59:24;;;;;;;7.95;6.00;;;;;;;;;;5011878;28;20108;-86
2021/12/10 10:01:52;;;;;;;8.27;5.65;;;;;;;;;;4991785;28;20057;-87
2021/12/10 10:04:19;;;;;;;8.35;6.10;;;;;;;;;;4987261;28;20040;-86
2021/12/10 10:06:47;;;;;;;7.00;5.90;;;;;;;;;;4996410;28;20034;-86
2021/12/10 10:09:15;;;;;;;6.60;5.88;;;;;;;;;;5000175;28;20125;-87
2021/12/10 10:11:51;;;;;;;8.23;5.93;;;;;;;;;;4987401;28;20129;-86
2021/12/10 10:14:19;;;;;;;7.18;5.40;;;;;;;;;;4979585;28;20388;-87
2021/12/10 10:17:03;;;;;;;8.00;5.53;;;;;;;;;;4973199;28;20408;-87
2021/12/10 10:19:29;;;;;;;9.05;5.43;;;;;;;;;;4999609;28;20042;-85
2021/12/10 10:21:57;;;;;;;6.93;5.63;;;;;;;;;;4945190;29;20090;-87
2021/12/10 10:28:37;;;;;;;8.43;5.32;;;;;;;;;;4957403;28;20168;-88
2021/12/10 10:31:49;;;;;;;7.43;4.93;;;;;;;;;;4937086;29;20403;-87
2021/12/10 10:35:01;;;;;;;6.72;5.60;;;;;;;;;;4959223;28;20068;-85
2021/12/10 10:37:27;;;;;;;6.05;5.05;;;;;;;;;;5029615;28;20097;-81
2021/12/10 10:40:17;;;;;;;7.40;5.70;;;;;;;;;;5010694;28;20034;-86
2021/12/10 10:49:36;;;;;;;6.45;4.70;;;;;;;;;;5021083;28;20500;-88
2021/12/10 12:04:32;;;;;;;5.78;3.30;;;;;;;;;;5034524;28;20048;-86
2021/12/10 12:35:54;;;;;;;5.93;3.20;;;;;;;;;;4949331;29;20107;-86
2021/12/10 12:43:04;;;;;;;6.05;3.20;;;;;;;;;;4898055;29;20106;-87
2021/12/10 12:46:27;;;;;;;6.97;3.75;;;;;;;;;;4902569;29;20063;-87
2021/12/10 12:49:22;;;;;;;7.25;3.40;;;;;;;;;;4906096;29;20047;-86
2021/12/10 13:57:12;;;;;;;6.47;4.03;;;;;;;;;;5025253;28;20616;-88
2021/12/10 13:59:38;;;;;;;6.18;3.83;;;;;;;;;;4992090;28;20053;-86
2021/12/10 14:02:07;;;;;;;6.45;4.20;;;;;;;;;;5009161;28;20034;-86
2021/12/10 14:04:39;;;;;;;8.63;4.20;;;;;;;;;;5057216;28;20088;-82
2021/12/10 14:07:07;;;;;;;4.95;3.92;;;;;;;;;;5043504;28;20045;-84
2021/12/10 14:09:43;;;;;;;9.57;4.20;;;;;;;;;;5013997;28;20048;-87
2021/12/10 14:12:11;;;;;;;5.38;3.92;;;;;;;;;;5017628;28;20049;-87
2021/12/10 14:14:41;;;;;;;6.80;3.90;;;;;;;;;;5007824;28;20077;-87
2021/12/10 14:17:11;;;;;;;6.75;3.95;;;;;;;;;;5017115;28;20465;-87
2021/12/10 14:19:48;;;;;;;6.45;4.15;;;;;;;;;;5007059;28;20095;-88
2021/12/10 14:22:16;;;;;;;7.85;3.90;;;;;;;;;;4993601;28;20038;-87
2021/12/10 14:24:51;;;;;;;9.13;4.30;;;;;;;;;;4976096;28;20038;-88
2021/12/10 14:27:21;;;;;;;7.37;4.07;;;;;;;;;;4996442;28;20039;-87
2021/12/10 14:30:06;;;;;;;6.93;4.40;;;;;;;;;;5000348;28;20026;-87
2021/12/10 14:32:32;;;;;;;6.57;4.50;;;;;;;;;;5000671;28;20034;-85
2021/12/10 14:35:11;;;;;;;7.45;4.50;;;;;;;;;;5002323;28;20014;-88
2021/12/10 14:37:59;;;;;;;8.30;4.18;;;;;;;;;;4987474;28;20073;-88
2021/12/10 14:40:33;;;;;;;7.68;4.15;;;;;;;;;;5011543;28;20038;-88
2021/12/10 14:43:18;;;;;;;5.15;3.70;;;;;;;;;;4992146;28;20040;-87
2021/12/10 14:46:04;;;;;;;8.65;4.28;;;;;;;;;;4995939;28;20064;-89
2021/12/10 14:48:37;;;;;;;7.10;3.90;;;;;;;;;;4995947;28;20046;-87
2021/12/10 14:51:09;;;;;;;4.55;4.07;;;;;;;;;;5001550;28;20092;-90
2021/12/10 14:53:43;;;;;;;5.43;4.00;;;;;;;;;;5028840;28;20359;-88
2021/12/10 14:56:32;;;;;;;6.38;4.70;;;;;;;;;;5033735;28;20106;-87
2021/12/10 14:59:16;;;;;;;7.47;5.03;;;;;;;;;;4978355;28;20038;-90
2021/12/10 15:01:45;;;;;;;;;;;;;;;;;;4982166;28;20037;-86
2021/12/10 15:04:28;;;;;;;6.55;5.63;;;;;;;;;;5001425;28;20016;-88
2021/12/10 15:06:57;;;;;;;8.52;5.35;;;;;;;;;;4974947;28;20042;-88
2021/12/10 15:09:24;;;;;;;9.10;6.38;;;;;;;;;;5010178;28;20033;-86
2021/12/10 15:11:53;;;;;;;8.27;6.13;;;;;;;;;;4980814;28;20515;-88
2021/12/10 15:14:26;;;;;;;10.73;7.72;;;;;;;;;;4984271;28;20057;-87
2021/12/10 15:17:12;;;;;;;12.63;8.52;;;;;;;;;;4985245;28;20037;-87
2021/12/10 15:19:50;;;;;;;8.60;7.78;;;;;;;;;;4980328;28;20401;-87
2021/12/10 15:22:27;;;;;;;14.07;8.50;;;;;;;;;;4975757;28;20097;-88
2021/12/10 15:24:54;;;;;;;10.82;8.55;;;;;;;;;;4978328;28;20034;-88
2021/12/10 15:27:28;;;;;;;10.05;7.55;;;;;;;;;;5006890;28;20046;-88
2021/12/10 15:29:54;;;;;;;;;;;;;;;;;;5005123;28;20029;-88
2021/12/10 15:32:23;;;;;;;9.35;7.55;;;;;;;;;;5001243;28;19924;-88
2021/12/10 15:34:58;;;;;;;11.70;7.45;;;;;;;;;;5020967;28;21109;-88
2021/12/10 15:37:33;;;;;;;9.57;7.35;;;;;;;;;;4980458;28;20132;-88
2021/12/10 15:40:11;;;;;;;10.82;8.02;;;;;;;;;;5003801;28;20045;-87
2021/12/10 15:42:39;;;;;;;10.23;8.23;;;;;;;;;;4980974;28;20041;-88
2021/12/10 15:45:11;;;;;;;13.10;8.55;;;;;;;;;;5010122;28;20400;-87
2021/12/10 15:47:43;;;;;;;10.77;8.07;;;;;;;;;;4977975;28;20092;-88
2021/12/10 15:50:13;;;;;;;10.10;8.27;;;;;;;;;;4997769;28;20065;-87
2021/12/10 15:52:41;;;;;;;18.55;11.25;;;;;;;;;;4992767;28;20044;-88
2021/12/10 15:55:10;;;;;;;14.43;9.60;;;;;;;;;;4980009;28;20121;-87
2021/12/10 15:57:38;;;;;;;23.35;9.90;;;;;;;;;;5009689;28;20042;-89
2021/12/10 16:00:18;;;;;;;12.18;8.85;;;;;;;;;;4991154;28;20053;-88
2021/12/10 16:02:51;;;;;;;11.32;8.75;;;;;;;;;;5000417;28;20038;-88
2021/12/10 16:05:19;;;;;;;12.75;8.82;;;;;;;;;;5034822;28;20137;-87
2021/12/10 16:07:46;;;;;;;13.57;9.05;;;;;;;;;;5010703;28;20049;-87
2021/12/10 16:10:12;;;;;;;10.63;8.55;;;;;;;;;;5007119;28;20036;-89
2021/12/10 16:12:39;;;;;;;12.60;8.73;;;;;;;;;;5012204;28;20042;-88
2021/12/10 16:15:14;;;;;;;11.77;8.38;;;;;;;;;;5004124;28;20100;-89
2021/12/10 16:17:40;;;;;;;13.20;9.48;;;;;;;;;;5001463;28;20045;-88
2021/12/10 16:20:12;;;;;;;13.93;9.52;;;;;;;;;;4974801;28;20038;-87
2021/12/10 16:22:39;;;;;;;14.50;10.73;;;;;;;;;;4977228;28;20056;-88
2021/12/10 16:25:06;;;;;;;15.02;9.25;;;;;;;;;;5014392;28;20038;-87
2021/12/10 16:27:34;;;;;;;15.63;10.85;;;;;;;;;;4981545;28;20113;-86
2021/12/10 16:30:10;;;;;;;16.42;10.55;;;;;;;;;;4979756;28;20500;-86
2021/12/10 16:32:37;;;;;;;16.58;12.68;;;;;;;;;;5015351;28;20128;-88
2021/12/10 16:35:09;;;;;;;17.17;13.18;;;;;;;;;;4995020;28;20040;-88
2021/12/10 16:37:40;;;;;;;16.70;11.40;;;;;;;;;;4991969;28;20051;-86
2021/12/10 16:40:09;;;;;;;16.02;12.73;;;;;;;;;;4980572;28;20046;-88
2021/12/10 16:42:35;;;;;;;18.23;13.57;;;;;;;;;;4972119;28;20038;-89
2021/12/10 16:45:01;;;;;;;17.23;12.25;;;;;;;;;;5005854;28;20041;-89
2021/12/10 16:47:29;;;;;;;17.55;13.68;;;;;;;;;;5009477;28;20121;-88
2021/12/10 16:49:56;;;;;;;18.90;13.45;;;;;;;;;;4994292;28;20044;-88
2021/12/10 16:52:25;;;;;;;18.17;12.57;;;;;;;;;;4986831;28;20038;-89
2021/12/10 16:54:54;;;;;;;15.98;11.20;;;;;;;;;;4989487;28;20057;-88
2021/12/10 16:57:22;;;;;;;14.68;10.85;;;;;;;;;;4990614;28;20465;-89
2021/12/10 16:59:49;;;;;;;16.63;11.40;;;;;;;;;;4973205;28;20054;-88
2021/12/10 17:02:19;;;;;;;15.93;12.18;;;;;;;;;;4983321;28;20089;-88
2021/12/10 17:04:50;;;;;;;16.75;12.30;;;;;;;;;;4980993;28;20046;-90
2021/12/10 17:07:18;;;;;;;12.95;10.95;;;;;;;;;;4997458;28;20501;-89
2021/12/10 17:09:46;;;;;;;18.90;11.63;;;;;;;;;;4994866;28;20042;-87
2021/12/10 17:12:14;;;;;;;16.60;10.90;;;;;;;;;;4984991;28;20046;-86
2021/12/10 17:14:43;;;;;;;18.75;11.93;;;;;;;;;;5022954;28;20076;-87
2021/12/10 17:17:09;;;;;;;15.68;11.52;;;;;;;;;;4997409;28;20401;-87
2021/12/10 17:19:37;;;;;;;18.65;11.52;;;;;;;;;;5015191;28;20054;-87
2021/12/10 17:22:06;;;;;;;15.02;11.90;;;;;;;;;;5000618;28;20129;-86
2021/12/10 17:24:36;;;;;;;19.63;13.15;;;;;;;;;;4983009;28;20530;-85
2021/12/10 17:27:03;;;;;;;20.50;13.70;;;;;;;;;;4998343;28;20165;-86
2021/12/10 17:29:32;;;;;;;19.52;12.65;;;;;;;;;;4993781;28;20055;-86
2021/12/10 17:32:09;;;;;;;20.95;13.30;;;;;;;;;;5027176;28;20049;-87
2021/12/10 17:34:39;;;;;;;21.20;13.40;;;;;;;;;;5013355;28;20101;-86
2021/12/10 17:37:07;;;;;;;17.50;12.70;;;;;;;;;;5033780;28;20140;-87
2021/12/10 17:39:37;;;;;;;18.50;13.05;;;;;;;;;;5023410;28;20072;-84
2021/12/10 17:42:05;;;;;;;15.50;10.52;;;;;;;;;;5014771;28;20035;-84
2021/12/10 17:44:37;;;;;;;14.23;9.85;;;;;;;;;;4984066;28;20042;-86